createdAt,value
2023-04-25T00:00:22.257Z,515.00
2023-04-25T00:01:22.247Z,507.00
2023-04-25T00:02:22.371Z,507.00
2023-04-25T00:03:22.522Z,502.00
2023-04-25T00:04:22.660Z,507.00
2023-04-25T00:05:22.786Z,508.00
2023-04-25T00:06:22.406Z,515.00
2023-04-25T00:07:22.408Z,514.00
2023-04-25T00:08:22.450Z,511.00
2023-04-25T00:09:22.493Z,507.00
2023-04-25T00:10:22.628Z,508.00
2023-04-25T00:11:22.560Z,510.00
2023-04-25T00:12:22.595Z,511.00
2023-04-25T00:13:22.689Z,506.00
2023-04-25T00:14:22.683Z,510.00
2023-04-25T00:15:23.112Z,506.00
2023-04-25T00:16:22.795Z,511.00
2023-04-25T00:17:22.877Z,512.00
2023-04-25T00:18:22.826Z,516.00
2023-04-25T00:19:22.831Z,512.00
2023-04-25T00:20:23.138Z,510.00
2023-04-25T00:21:22.897Z,515.00
2023-04-25T00:22:22.954Z,511.00
2023-04-25T00:23:22.962Z,509.00
2023-04-25T00:24:23.012Z,509.00
2023-04-25T00:25:23.157Z,507.00
2023-04-25T00:26:23.051Z,510.00
2023-04-25T00:27:23.106Z,508.00
2023-04-25T00:28:23.119Z,512.00
2023-04-25T00:29:23.104Z,512.00
2023-04-25T00:30:23.627Z,511.00
2023-04-25T00:31:23.287Z,510.00
2023-04-25T00:32:23.208Z,510.00
2023-04-25T00:33:23.229Z,506.00
2023-04-25T00:34:23.309Z,507.00
2023-04-25T00:35:23.293Z,511.00
2023-04-25T00:36:23.669Z,509.00
2023-04-25T00:37:23.347Z,515.00
2023-04-25T00:38:23.360Z,517.00
2023-04-25T00:39:23.435Z,520.00
2023-04-25T00:40:23.428Z,516.00
2023-04-25T00:41:23.636Z,526.00
2023-04-25T00:42:23.496Z,519.00
2023-04-25T00:43:23.540Z,517.00
2023-04-25T00:44:23.585Z,516.00
2023-04-25T00:45:23.658Z,522.00
2023-04-25T00:46:24.169Z,517.00
2023-04-25T00:47:23.764Z,522.00
2023-04-25T00:48:23.760Z,524.00
2023-04-25T00:49:23.747Z,516.00
2023-04-25T00:50:23.761Z,514.00
2023-04-25T00:51:24.116Z,520.00
2023-04-25T00:52:23.891Z,523.00
2023-04-25T00:53:23.934Z,524.00
2023-04-25T00:54:23.944Z,517.00
2023-04-25T00:55:23.998Z,519.00
2023-04-25T00:56:24.150Z,516.00
2023-04-25T00:57:24.060Z,522.00
2023-04-25T00:58:24.192Z,519.00
2023-04-25T00:59:24.138Z,511.00
2023-04-25T01:00:24.208Z,512.00
2023-04-25T01:01:24.762Z,517.00
2023-04-25T01:02:24.437Z,518.00
2023-04-25T01:03:24.530Z,522.00
2023-04-25T01:04:24.427Z,525.00
2023-04-25T01:05:24.383Z,517.00
2023-04-25T01:06:24.680Z,516.00
2023-04-25T01:07:24.450Z,516.00
2023-04-25T01:08:24.489Z,508.00
2023-04-25T01:09:24.552Z,514.00
2023-04-25T01:10:24.596Z,508.00
2023-04-25T01:11:24.647Z,510.00
2023-04-25T01:12:24.621Z,519.00
2023-04-25T01:13:24.672Z,509.00
2023-04-25T01:14:24.693Z,514.00
2023-04-25T01:15:24.745Z,517.00
2023-04-25T01:16:25.186Z,504.00
2023-04-25T01:17:24.827Z,508.00
2023-04-25T01:18:24.816Z,512.00
2023-04-25T01:19:24.887Z,510.00
2023-04-25T01:20:24.943Z,507.00
2023-04-25T01:21:25.129Z,519.00
2023-04-25T01:22:24.962Z,511.00
2023-04-25T01:23:25.022Z,516.00
2023-04-25T01:24:25.037Z,518.00
2023-04-25T01:25:25.061Z,521.00
2023-04-25T01:26:25.162Z,521.00
2023-04-25T01:27:25.133Z,522.00
2023-04-25T01:28:25.162Z,523.00
2023-04-25T01:29:25.143Z,521.00
2023-04-25T01:30:25.217Z,524.00
2023-04-25T01:31:25.679Z,516.00
2023-04-25T01:32:25.340Z,517.00
2023-04-25T01:33:25.276Z,514.00
2023-04-25T01:34:25.329Z,519.00
2023-04-25T01:35:25.350Z,522.00
2023-04-25T01:36:25.651Z,517.00
2023-04-25T01:37:25.400Z,521.00
2023-04-25T01:38:25.368Z,520.00
2023-04-25T01:39:25.395Z,520.00
2023-04-25T01:40:25.432Z,517.00
2023-04-25T01:41:25.635Z,510.00
2023-04-25T01:42:25.494Z,512.00
2023-04-25T01:43:25.503Z,516.00
2023-04-25T01:44:25.510Z,509.00
2023-04-25T01:45:25.532Z,516.00
2023-04-25T01:46:25.678Z,521.00
2023-04-25T01:47:25.599Z,523.00
2023-04-25T01:48:25.625Z,521.00
2023-04-25T01:49:25.660Z,516.00
2023-04-25T01:50:25.705Z,521.00
2023-04-25T01:51:26.165Z,519.00
2023-04-25T01:52:25.766Z,517.00
2023-04-25T01:53:25.769Z,522.00
2023-04-25T01:54:25.825Z,522.00
2023-04-25T01:55:25.879Z,518.00
2023-04-25T01:56:26.146Z,518.00
2023-04-25T01:57:25.973Z,518.00
2023-04-25T01:58:25.978Z,515.00
2023-04-25T01:59:26.010Z,522.00
2023-04-25T02:00:26.035Z,525.00
2023-04-25T02:01:26.241Z,523.00
2023-04-25T02:02:26.194Z,528.00
2023-04-25T02:03:26.231Z,516.00
2023-04-25T02:04:26.248Z,518.00
2023-04-25T02:05:26.270Z,519.00
2023-04-25T02:06:26.679Z,515.00
2023-04-25T02:07:26.348Z,521.00
2023-04-25T02:08:26.331Z,517.00
2023-04-25T02:09:26.379Z,514.00
2023-04-25T02:10:26.462Z,519.00
2023-04-25T02:11:26.632Z,521.00
2023-04-25T02:12:26.506Z,518.00
2023-04-25T02:13:26.572Z,523.00
2023-04-25T02:14:26.594Z,520.00
2023-04-25T02:15:26.628Z,518.00
2023-04-25T02:16:27.188Z,523.00
2023-04-25T02:17:26.695Z,523.00
2023-04-25T02:18:26.750Z,518.00
2023-04-25T02:19:26.803Z,517.00
2023-04-25T02:20:26.863Z,519.00
2023-04-25T02:21:27.245Z,510.00
2023-04-25T02:22:26.878Z,520.00
2023-04-25T02:23:26.962Z,519.00
2023-04-25T02:24:26.962Z,520.00
2023-04-25T02:25:26.992Z,516.00
2023-04-25T02:26:27.159Z,521.00
2023-04-25T02:27:27.093Z,529.00
2023-04-25T02:28:27.099Z,529.00
2023-04-25T02:29:27.108Z,533.00
2023-04-25T02:30:27.166Z,535.00
2023-04-25T02:31:27.693Z,530.00
2023-04-25T02:32:27.299Z,529.00
2023-04-25T02:33:27.285Z,523.00
2023-04-25T02:34:27.294Z,524.00
2023-04-25T02:35:27.370Z,528.00
2023-04-25T02:36:27.670Z,523.00
2023-04-25T02:37:27.429Z,525.00
2023-04-25T02:38:27.439Z,526.00
2023-04-25T02:39:27.461Z,526.00
2023-04-25T02:40:27.485Z,532.00
2023-04-25T02:41:27.668Z,533.00
2023-04-25T02:42:27.607Z,531.00
2023-04-25T02:43:27.605Z,530.00
2023-04-25T02:44:27.665Z,536.00
2023-04-25T02:45:27.735Z,542.00
2023-04-25T02:46:38.398Z,534.00
2023-04-25T02:47:28.789Z,534.00
2023-04-25T02:48:27.750Z,534.00
2023-04-25T02:49:27.763Z,536.00
2023-04-25T02:50:27.855Z,536.00
2023-04-25T02:51:28.685Z,541.00
2023-04-25T02:52:27.928Z,541.00
2023-04-25T02:53:27.983Z,538.00
2023-04-25T02:54:28.017Z,540.00
2023-04-25T02:55:28.486Z,534.00
2023-04-25T02:56:28.159Z,532.00
2023-04-25T02:57:28.134Z,541.00
2023-04-25T02:58:28.166Z,533.00
2023-04-25T02:59:28.172Z,537.00
2023-04-25T03:00:28.280Z,537.00
2023-04-25T03:01:28.692Z,530.00
2023-04-25T03:02:28.370Z,535.00
2023-04-25T03:03:28.460Z,536.00
2023-04-25T03:04:28.346Z,541.00
2023-04-25T03:05:28.386Z,538.00
2023-04-25T03:06:28.683Z,540.00
2023-04-25T03:07:28.362Z,531.00
2023-04-25T03:08:28.396Z,536.00
2023-04-25T03:09:28.414Z,535.00
2023-04-25T03:10:28.460Z,534.00
2023-04-25T03:11:28.684Z,537.00
2023-04-25T03:12:28.528Z,535.00
2023-04-25T03:13:28.566Z,542.00
2023-04-25T03:14:28.581Z,540.00
2023-04-25T03:15:28.612Z,536.00
2023-04-25T03:16:29.185Z,538.00
2023-04-25T03:17:28.738Z,542.00
2023-04-25T03:18:28.825Z,540.00
2023-04-25T03:19:28.843Z,545.00
2023-04-25T03:20:28.844Z,547.00
2023-04-25T03:21:29.188Z,547.00
2023-04-25T03:22:28.930Z,546.00
2023-04-25T03:23:28.950Z,547.00
2023-04-25T03:24:29.021Z,546.00
2023-04-25T03:25:29.088Z,544.00
2023-04-25T03:26:29.187Z,547.00
2023-04-25T03:27:29.135Z,547.00
2023-04-25T03:28:29.186Z,543.00
2023-04-25T03:29:29.359Z,550.00
2023-04-25T03:30:29.294Z,548.00
2023-04-25T03:31:29.732Z,546.00
2023-04-25T03:32:29.398Z,546.00
2023-04-25T03:33:29.443Z,545.00
2023-04-25T03:34:29.509Z,544.00
2023-04-25T03:35:29.510Z,542.00
2023-04-25T03:36:29.576Z,541.00
2023-04-25T03:37:29.625Z,544.00
2023-04-25T03:38:29.647Z,543.00
2023-04-25T03:39:29.703Z,541.00
2023-04-25T03:40:29.803Z,536.00
2023-04-25T03:41:29.793Z,537.00
2023-04-25T03:42:29.852Z,534.00
2023-04-25T03:43:29.912Z,536.00
2023-04-25T03:44:29.925Z,536.00
2023-04-25T03:45:29.985Z,534.00
2023-04-25T03:46:30.174Z,534.00
2023-04-25T03:47:30.075Z,528.00
2023-04-25T03:48:30.074Z,529.00
2023-04-25T03:49:30.124Z,530.00
2023-04-25T03:50:30.136Z,532.00
2023-04-25T03:51:30.188Z,533.00
2023-04-25T03:52:30.672Z,541.00
2023-04-25T03:53:30.204Z,532.00
2023-04-25T03:54:30.246Z,526.00
2023-04-25T03:55:30.257Z,529.00
2023-04-25T03:56:30.329Z,531.00
2023-04-25T03:57:30.333Z,526.00
2023-04-25T03:58:30.389Z,528.00
2023-04-25T03:59:30.418Z,529.00
2023-04-25T04:00:30.475Z,525.00
2023-04-25T04:01:30.529Z,521.00
2023-04-25T04:02:30.877Z,518.00
2023-04-25T04:03:30.727Z,519.00
2023-04-25T04:04:30.918Z,518.00
2023-04-25T04:05:30.768Z,517.00
2023-04-25T04:06:30.782Z,515.00
2023-04-25T04:07:30.787Z,514.00
2023-04-25T04:08:30.864Z,512.00
2023-04-25T04:09:30.911Z,516.00
2023-04-25T04:10:30.939Z,516.00
2023-04-25T04:11:30.973Z,509.00
2023-04-25T04:12:31.181Z,516.00
2023-04-25T04:13:31.110Z,519.00
2023-04-25T04:14:31.150Z,515.00
2023-04-25T04:15:31.220Z,523.00
2023-04-25T04:16:33.893Z,516.00
2023-04-25T04:17:31.305Z,517.00
2023-04-25T04:18:31.260Z,517.00
2023-04-25T04:19:31.199Z,522.00
2023-04-25T04:20:31.216Z,520.00
2023-04-25T04:21:31.244Z,522.00
2023-04-25T04:22:31.242Z,525.00
2023-04-25T04:23:31.207Z,520.00
2023-04-25T04:24:31.199Z,522.00
2023-04-25T04:25:31.179Z,526.00
2023-04-25T04:26:31.205Z,527.00
2023-04-25T04:27:31.194Z,522.00
2023-04-25T04:28:31.167Z,521.00
2023-04-25T04:29:31.163Z,524.00
2023-04-25T04:30:31.160Z,525.00
2023-04-25T04:31:31.228Z,521.00
2023-04-25T04:32:31.229Z,532.00
2023-04-25T04:33:31.151Z,533.00
2023-04-25T04:34:31.134Z,527.00
2023-04-25T04:35:31.116Z,524.00
2023-04-25T04:36:31.130Z,524.00
2023-04-25T04:37:31.222Z,527.00
2023-04-25T04:38:31.098Z,526.00
2023-04-25T04:39:31.116Z,529.00
2023-04-25T04:40:31.083Z,530.00
2023-04-25T04:41:31.108Z,533.00
2023-04-25T04:42:31.054Z,532.00
2023-04-25T04:43:31.075Z,529.00
2023-04-25T04:44:31.081Z,529.00
2023-04-25T04:45:31.184Z,528.00
2023-04-25T04:46:31.096Z,527.00
2023-04-25T04:47:31.260Z,523.00
2023-04-25T04:48:31.049Z,526.00
2023-04-25T04:49:31.061Z,534.00
2023-04-25T04:50:31.059Z,530.00
2023-04-25T04:51:31.027Z,532.00
2023-04-25T04:52:31.209Z,530.00
2023-04-25T04:53:30.976Z,522.00
2023-04-25T04:54:30.996Z,526.00
2023-04-25T04:55:30.988Z,526.00
2023-04-25T04:56:30.987Z,526.00
2023-04-25T04:57:31.236Z,522.00
2023-04-25T04:58:31.095Z,522.00
2023-04-25T04:59:31.140Z,532.00
2023-04-25T05:00:31.244Z,530.00
2023-04-25T05:01:31.308Z,537.00
2023-04-25T05:02:31.853Z,539.00
2023-04-25T05:03:31.445Z,546.00
2023-04-25T05:04:31.528Z,552.00
2023-04-25T05:05:31.463Z,547.00
2023-04-25T05:06:31.476Z,558.00
2023-04-25T05:07:31.718Z,560.00
2023-04-25T05:08:31.587Z,557.00
2023-04-25T05:09:31.617Z,552.00
2023-04-25T05:10:31.666Z,550.00
2023-04-25T05:11:31.709Z,550.00
2023-04-25T05:12:32.241Z,549.00
2023-04-25T05:13:31.761Z,554.00
2023-04-25T05:14:31.780Z,545.00
2023-04-25T05:15:31.835Z,545.00
2023-04-25T05:16:31.926Z,553.00
2023-04-25T05:17:32.274Z,547.00
2023-04-25T05:18:31.896Z,542.00
2023-04-25T05:19:31.913Z,547.00
2023-04-25T05:20:31.972Z,532.00
2023-04-25T05:21:31.976Z,530.00
2023-04-25T05:22:32.230Z,535.00
2023-04-25T05:23:33.405Z,531.00
2023-04-25T05:24:32.041Z,532.00
2023-04-25T05:25:32.105Z,541.00
2023-04-25T05:26:32.184Z,540.00
2023-04-25T05:27:32.216Z,539.00
2023-04-25T05:28:32.196Z,539.00
2023-04-25T05:29:32.192Z,535.00
2023-04-25T05:30:32.294Z,543.00
2023-04-25T05:31:32.351Z,548.00
2023-04-25T05:32:32.838Z,552.00
2023-04-25T05:33:33.237Z,548.00
2023-04-25T05:34:32.366Z,551.00
2023-04-25T05:35:32.492Z,556.00
2023-04-25T05:36:32.489Z,558.00
2023-04-25T05:37:32.740Z,558.00
2023-04-25T05:38:34.093Z,559.00
2023-04-25T05:39:32.575Z,563.00
2023-04-25T05:40:32.621Z,561.00
2023-04-25T05:41:32.643Z,565.00
2023-04-25T05:42:32.740Z,566.00
2023-04-25T05:43:32.772Z,564.00
2023-04-25T05:44:32.798Z,569.00
2023-04-25T05:45:32.812Z,570.00
2023-04-25T05:46:32.984Z,541.00
2023-04-25T05:47:33.965Z,561.00
2023-04-25T05:48:32.834Z,588.00
2023-04-25T05:49:32.884Z,556.00
2023-04-25T05:50:32.937Z,570.00
2023-04-25T05:51:32.964Z,581.00
2023-04-25T05:52:32.975Z,600.00
2023-04-25T05:53:33.019Z,635.00
2023-04-25T05:54:33.032Z,651.00
2023-04-25T05:55:33.017Z,624.00
2023-04-25T05:56:33.063Z,619.00
2023-04-25T05:57:33.239Z,580.00
2023-04-25T05:58:33.088Z,583.00
2023-04-25T05:59:33.135Z,601.00
2023-04-25T06:00:33.122Z,613.00
2023-04-25T06:01:33.173Z,607.00
2023-04-25T06:02:33.299Z,646.00
2023-04-25T06:03:33.472Z,686.00
2023-04-25T06:04:33.626Z,768.00
2023-04-25T06:05:33.418Z,796.00
2023-04-25T06:06:33.335Z,828.00
2023-04-25T06:07:33.357Z,901.00
2023-04-25T06:08:33.365Z,952.00
2023-04-25T06:09:33.402Z,1085.00
2023-04-25T06:10:33.607Z,1092.00
2023-04-25T06:11:33.586Z,1125.00
2023-04-25T06:12:33.702Z,1214.00
2023-04-25T06:13:33.553Z,1263.00
2023-04-25T06:14:33.559Z,1300.00
2023-04-25T06:15:33.632Z,1370.00
2023-04-25T06:16:33.922Z,1390.00
2023-04-25T06:17:33.744Z,1423.00
2023-04-25T06:18:33.935Z,1471.00
2023-04-25T06:19:33.749Z,1519.00
2023-04-25T06:20:33.744Z,1538.00
2023-04-25T06:21:33.755Z,1689.00
2023-04-25T06:22:33.789Z,1686.00
2023-04-25T06:23:33.776Z,1715.00
2023-04-25T06:24:33.833Z,1733.00
2023-04-25T06:25:33.808Z,1748.00
2023-04-25T06:26:33.841Z,1744.00
2023-04-25T06:27:34.225Z,1799.00
2023-04-25T06:28:33.924Z,1821.00
2023-04-25T06:29:34.007Z,1834.00
2023-04-25T06:30:33.982Z,1881.00
2023-04-25T06:31:34.012Z,1963.00
2023-04-25T06:32:34.240Z,1973.00
2023-04-25T06:33:34.077Z,1983.00
2023-04-25T06:34:34.155Z,2012.00
2023-04-25T06:35:34.228Z,2044.00
2023-04-25T06:36:34.264Z,2088.00
2023-04-25T06:37:34.316Z,2106.00
2023-04-25T06:38:34.369Z,2085.00
2023-04-25T06:39:34.404Z,2107.00
2023-04-25T06:40:34.427Z,2122.00
2023-04-25T06:41:34.468Z,2129.00
2023-04-25T06:42:34.799Z,2147.00
2023-04-25T06:43:34.568Z,2169.00
2023-04-25T06:44:34.567Z,2183.00
2023-04-25T06:45:34.649Z,2200.00
2023-04-25T06:46:34.803Z,2225.00
2023-04-25T06:47:34.808Z,2230.00
2023-04-25T06:48:34.730Z,2244.00
2023-04-25T06:49:34.769Z,2243.00
2023-04-25T06:50:34.804Z,2281.00
2023-04-25T06:51:34.903Z,2288.00
2023-04-25T06:52:35.263Z,2328.00
2023-04-25T06:53:35.005Z,2075.00
2023-04-25T06:54:34.971Z,1360.00
2023-04-25T06:55:34.980Z,937.00
2023-04-25T06:56:35.022Z,908.00
2023-04-25T06:57:35.243Z,942.00
2023-04-25T06:58:35.130Z,1201.00
2023-04-25T06:59:35.093Z,1314.00
2023-04-25T07:00:35.151Z,1395.00
2023-04-25T07:01:35.173Z,1472.00
2023-04-25T07:02:35.257Z,1454.00
2023-04-25T07:03:35.400Z,1483.00
2023-04-25T07:04:35.367Z,1521.00
2023-04-25T07:05:35.581Z,1546.00
2023-04-25T07:06:35.253Z,1570.00
2023-04-25T07:07:35.274Z,1603.00
2023-04-25T07:08:35.293Z,1636.00
2023-04-25T07:09:35.631Z,1674.00
2023-04-25T07:10:35.301Z,1695.00
2023-04-25T07:11:35.359Z,1715.00
2023-04-25T07:12:35.405Z,1738.00
2023-04-25T07:13:35.462Z,1753.00
2023-04-25T07:14:36.304Z,1765.00
2023-04-25T07:15:35.527Z,1802.00
2023-04-25T07:16:35.638Z,1818.00
2023-04-25T07:17:35.668Z,1834.00
2023-04-25T07:18:35.681Z,1851.00
2023-04-25T07:19:35.767Z,1870.00
2023-04-25T07:20:36.009Z,1902.00
2023-04-25T07:21:35.942Z,1912.00
2023-04-25T07:22:35.805Z,1936.00
2023-04-25T07:23:36.265Z,1941.00
2023-04-25T07:24:35.911Z,1955.00
2023-04-25T07:25:35.938Z,1968.00
2023-04-25T07:26:35.975Z,1999.00
2023-04-25T07:27:36.031Z,2019.00
2023-04-25T07:28:36.288Z,2034.00
2023-04-25T07:29:36.087Z,2051.00
2023-04-25T07:30:36.327Z,2055.00
2023-04-25T07:31:36.243Z,2066.00
2023-04-25T07:32:36.245Z,2093.00
2023-04-25T07:33:36.282Z,2091.00
2023-04-25T07:34:36.596Z,2117.00
2023-04-25T07:35:36.336Z,2127.00
2023-04-25T07:36:36.627Z,2142.00
2023-04-25T07:37:36.409Z,2167.00
2023-04-25T07:38:36.436Z,2177.00
2023-04-25T07:39:36.463Z,2192.00
2023-04-25T07:40:36.455Z,2183.00
2023-04-25T07:41:36.520Z,2199.00
2023-04-25T07:42:36.569Z,2201.00
2023-04-25T07:43:36.799Z,2219.00
2023-04-25T07:44:36.613Z,2222.00
2023-04-25T07:45:36.716Z,2233.00
2023-04-25T07:46:36.679Z,2243.00
2023-04-25T07:47:36.823Z,2283.00
2023-04-25T07:48:36.786Z,2282.00
2023-04-25T07:49:36.782Z,2324.00
2023-04-25T07:50:36.746Z,2328.00
2023-04-25T07:51:36.820Z,2164.00
2023-04-25T07:52:36.866Z,1210.00
2023-04-25T07:53:37.391Z,996.00
2023-04-25T07:54:36.883Z,909.00
2023-04-25T07:55:36.933Z,596.00
2023-04-25T07:56:49.001Z,498.00
2023-04-25T07:57:37.937Z,500.00
2023-04-25T07:58:37.255Z,520.00
2023-04-25T07:59:36.915Z,590.00
2023-04-25T08:00:36.922Z,751.00
2023-04-25T08:01:36.894Z,1101.00
2023-04-25T08:02:36.978Z,1154.00
2023-04-25T08:03:37.491Z,1186.00
2023-04-25T08:04:36.960Z,1306.00
2023-04-25T08:05:37.078Z,1334.00
2023-04-25T08:06:37.105Z,1372.00
2023-04-25T08:07:36.856Z,1425.00
2023-04-25T08:08:37.246Z,1468.00
2023-04-25T08:09:36.852Z,1502.00
2023-04-25T08:10:36.820Z,1529.00
2023-04-25T08:11:36.839Z,1551.00
2023-04-25T08:12:36.800Z,1572.00
2023-04-25T08:13:36.838Z,1614.00
2023-04-25T08:14:37.123Z,1628.00
2023-04-25T08:15:36.929Z,1656.00
2023-04-25T08:16:36.869Z,1661.00
2023-04-25T08:17:36.884Z,1676.00
2023-04-25T08:18:37.297Z,1696.00
2023-04-25T08:19:36.893Z,1707.00
2023-04-25T08:20:36.958Z,1739.00
2023-04-25T08:21:36.963Z,1740.00
2023-04-25T08:22:36.955Z,1767.00
2023-04-25T08:23:37.310Z,1791.00
2023-04-25T08:24:39.345Z,1794.00
2023-04-25T08:25:37.253Z,1808.00
2023-04-25T08:26:37.283Z,1827.00
2023-04-25T08:27:37.362Z,1831.00
2023-04-25T08:28:37.784Z,1831.00
2023-04-25T08:29:37.428Z,1861.00
2023-04-25T08:30:37.438Z,1862.00
2023-04-25T08:31:37.521Z,1862.00
2023-04-25T08:32:37.558Z,1894.00
2023-04-25T08:33:37.811Z,1890.00
2023-04-25T08:34:37.648Z,1904.00
2023-04-25T08:35:37.634Z,1904.00
2023-04-25T08:36:39.901Z,1913.00
2023-04-25T08:37:37.945Z,1934.00
2023-04-25T08:38:38.292Z,1929.00
2023-04-25T08:39:37.998Z,1934.00
2023-04-25T08:40:38.063Z,1928.00
2023-04-25T08:41:38.113Z,1938.00
2023-04-25T08:42:38.122Z,1486.00
2023-04-25T08:43:38.278Z,1117.00
2023-04-25T08:44:38.119Z,1243.00
2023-04-25T08:45:38.143Z,1092.00
2023-04-25T08:46:38.194Z,1150.00
2023-04-25T08:47:38.224Z,1112.00
2023-04-25T08:48:38.224Z,1236.00
2023-04-25T08:49:38.275Z,1284.00
2023-04-25T08:50:38.269Z,1350.00
2023-04-25T08:51:38.293Z,1382.00
2023-04-25T08:52:38.338Z,1449.00
2023-04-25T08:53:38.793Z,1502.00
2023-04-25T08:54:40.320Z,1540.00
2023-04-25T08:55:38.366Z,1602.00
2023-04-25T08:56:38.332Z,1653.00
2023-04-25T08:57:38.419Z,1706.00
2023-04-25T08:58:38.390Z,1593.00
2023-04-25T08:59:39.260Z,834.00
2023-04-25T09:00:38.333Z,400.00
2023-04-25T09:01:38.343Z,400.00
2023-04-25T09:02:38.458Z,400.00
2023-04-25T09:03:39.348Z,400.00
2023-04-25T09:04:38.294Z,400.00
2023-04-25T09:05:38.772Z,471.00
2023-04-25T09:06:39.331Z,475.00
2023-04-25T09:07:38.281Z,495.00
2023-04-25T09:08:38.781Z,550.00
2023-04-25T09:09:38.292Z,651.00
2023-04-25T09:10:38.294Z,978.00
2023-04-25T09:11:38.360Z,1165.00
2023-04-25T09:12:38.402Z,1282.00
2023-04-25T09:13:38.890Z,1360.00
2023-04-25T09:14:39.308Z,1456.00
2023-04-25T09:15:38.495Z,1513.00
2023-04-25T09:16:39.695Z,1595.00
2023-04-25T09:17:38.602Z,1668.00
2023-04-25T09:18:38.628Z,1748.00
2023-04-25T09:19:40.878Z,1788.00
2023-04-25T09:20:59.605Z,1866.00
2023-04-25T09:21:39.599Z,1871.00
2023-04-25T09:22:38.634Z,1889.00
2023-04-25T09:23:38.807Z,1933.00
2023-04-25T09:24:38.614Z,2017.00
2023-04-25T09:25:38.565Z,2152.00
2023-04-25T09:26:38.545Z,2214.00
2023-04-25T09:27:38.636Z,2266.00
2023-04-25T09:28:38.525Z,2302.00
2023-04-25T09:29:38.536Z,2344.00
2023-04-25T09:30:38.549Z,2379.00
2023-04-25T09:31:38.535Z,2405.00
2023-04-25T09:32:38.560Z,2442.00
2023-04-25T09:33:38.537Z,2466.00
2023-04-25T09:34:38.593Z,2501.00
2023-04-25T09:35:38.508Z,2535.00
2023-04-25T09:36:38.617Z,2553.00
2023-04-25T09:37:38.610Z,2582.00
2023-04-25T09:38:38.653Z,2605.00
2023-04-25T09:39:38.821Z,2630.00
2023-04-25T09:40:38.726Z,2652.00
2023-04-25T09:41:38.788Z,2677.00
2023-04-25T09:42:38.833Z,2694.00
2023-04-25T09:43:38.846Z,2694.00
2023-04-25T09:44:39.325Z,2723.00
2023-04-25T09:45:38.933Z,2751.00
2023-04-25T09:46:39.064Z,2769.00
2023-04-25T09:47:39.040Z,2797.00
2023-04-25T09:48:39.054Z,2721.00
2023-04-25T09:49:39.311Z,2555.00
2023-04-25T09:50:39.103Z,2171.00
2023-04-25T09:51:39.173Z,2193.00
2023-04-25T09:52:39.185Z,2218.00
2023-04-25T09:53:39.182Z,2256.00
2023-04-25T09:54:39.328Z,2361.00
2023-04-25T09:55:39.224Z,2305.00
2023-04-25T09:56:39.253Z,2251.00
2023-04-25T09:57:39.226Z,2396.00
2023-04-25T09:58:39.239Z,2431.00
2023-04-25T09:59:39.346Z,2474.00
2023-04-25T10:00:39.287Z,2489.00
2023-04-25T10:01:39.321Z,2528.00
2023-04-25T10:02:39.371Z,2582.00
2023-04-25T10:03:39.553Z,2621.00
2023-04-25T10:04:39.846Z,2662.00
2023-04-25T10:05:39.421Z,2730.00
2023-04-25T10:06:39.473Z,2758.00
2023-04-25T10:07:39.531Z,2777.00
2023-04-25T10:08:39.587Z,2825.00
2023-04-25T10:09:39.628Z,2847.00
2023-04-25T10:10:39.720Z,2855.00
2023-04-25T10:11:39.669Z,2893.00
2023-04-25T10:12:39.928Z,2929.00
2023-04-25T10:13:39.746Z,2933.00
2023-04-25T10:14:39.842Z,2957.00
2023-04-25T10:15:40.465Z,2977.00
2023-04-25T10:16:39.866Z,2991.00
2023-04-25T10:17:39.933Z,3012.00
2023-04-25T10:18:39.970Z,3033.00
2023-04-25T10:19:39.975Z,3087.00
2023-04-25T10:20:40.032Z,3117.00
2023-04-25T10:21:40.029Z,3106.00
2023-04-25T10:22:40.093Z,2852.00
2023-04-25T10:23:40.099Z,2622.00
2023-04-25T10:24:40.146Z,2373.00
2023-04-25T10:25:40.208Z,2688.00
2023-04-25T10:26:40.402Z,2794.00
2023-04-25T10:27:40.342Z,2705.00
2023-04-25T10:28:40.341Z,2599.00
2023-04-25T10:29:40.407Z,2576.00
2023-04-25T10:30:40.512Z,2620.00
2023-04-25T10:31:40.557Z,2651.00
2023-04-25T10:32:40.577Z,2692.00
2023-04-25T10:33:40.535Z,2726.00
2023-04-25T10:34:40.887Z,2761.00
2023-04-25T10:35:40.633Z,2799.00
2023-04-25T10:36:40.679Z,2838.00
2023-04-25T10:37:40.923Z,2850.00
2023-04-25T10:38:40.748Z,2885.00
2023-04-25T10:39:40.880Z,2866.00
2023-04-25T10:40:41.007Z,2830.00
2023-04-25T10:41:41.261Z,1847.00
2023-04-25T10:42:42.096Z,1708.00
2023-04-25T10:43:40.940Z,1612.00
2023-04-25T10:44:41.405Z,1670.00
2023-04-25T10:45:41.021Z,1755.00
2023-04-25T10:46:41.031Z,1946.00
2023-04-25T10:47:41.083Z,2008.00
2023-04-25T10:48:41.027Z,2063.00
2023-04-25T10:49:41.347Z,2085.00
2023-04-25T10:50:41.015Z,2142.00
2023-04-25T10:51:55.009Z,2138.00
2023-04-25T10:52:42.020Z,2140.00
2023-04-25T10:53:41.032Z,2148.00
2023-04-25T10:54:41.353Z,2159.00
2023-04-25T10:55:41.043Z,2186.00
2023-04-25T10:56:41.011Z,2209.00
2023-04-25T10:57:41.005Z,2196.00
2023-04-25T10:58:40.992Z,2200.00
2023-04-25T10:59:41.378Z,2229.00
2023-04-25T11:00:48.318Z,2224.00
2023-04-25T11:01:42.019Z,2226.00
2023-04-25T11:02:41.005Z,2229.00
2023-04-25T11:03:41.143Z,2237.00
2023-04-25T11:04:41.590Z,2236.00
2023-04-25T11:05:55.215Z,2227.00
2023-04-25T11:06:41.945Z,2226.00
2023-04-25T11:07:40.927Z,2227.00
2023-04-25T11:08:40.924Z,2231.00
2023-04-25T11:09:41.439Z,2237.00
2023-04-25T11:10:40.916Z,2234.00
2023-04-25T11:11:40.885Z,2229.00
2023-04-25T11:12:40.892Z,2239.00
2023-04-25T11:13:40.895Z,2244.00
2023-04-25T11:15:40.937Z,2218.00
2023-04-25T11:16:40.865Z,2222.00
2023-04-25T11:17:40.929Z,2204.00
2023-04-25T11:18:40.863Z,2188.00
2023-04-25T11:19:41.350Z,2201.00
2023-04-25T11:20:40.853Z,2197.00
2023-04-25T11:21:40.890Z,2189.00
2023-04-25T11:22:40.921Z,2190.00
2023-04-25T11:23:40.898Z,2190.00
2023-04-25T11:24:41.357Z,2184.00
2023-04-25T11:25:40.973Z,2177.00
2023-04-25T11:26:41.016Z,2188.00
2023-04-25T11:27:41.055Z,2166.00
2023-04-25T11:28:41.128Z,2177.00
2023-04-25T11:29:41.978Z,2165.00
2023-04-25T11:30:41.258Z,2160.00
2023-04-25T11:31:41.210Z,2179.00
2023-04-25T11:32:41.267Z,2161.00
2023-04-25T11:33:41.262Z,2163.00
2023-04-25T11:34:41.376Z,2141.00
2023-04-25T11:35:41.337Z,2149.00
2023-04-25T11:36:41.472Z,2133.00
2023-04-25T11:37:41.396Z,2116.00
2023-04-25T11:38:41.444Z,2142.00
2023-04-25T11:39:41.869Z,2122.00
2023-04-25T11:40:41.507Z,2114.00
2023-04-25T11:41:42.156Z,2096.00
2023-04-25T11:42:41.641Z,2093.00
2023-04-25T11:43:43.383Z,2072.00
2023-04-25T11:44:41.916Z,2055.00
2023-04-25T11:45:41.757Z,2043.00
2023-04-25T11:46:41.877Z,2067.00
2023-04-25T11:47:41.925Z,2073.00
2023-04-25T11:48:41.818Z,2063.00
2023-04-25T11:49:42.387Z,2040.00
2023-04-25T11:50:41.925Z,2044.00
2023-04-25T11:51:41.950Z,2050.00
2023-04-25T11:52:41.980Z,2027.00
2023-04-25T11:53:42.052Z,2011.00
2023-04-25T11:54:42.391Z,2015.00
2023-04-25T11:55:42.114Z,2000.00
2023-04-25T11:56:42.118Z,2012.00
2023-04-25T11:57:42.199Z,1996.00
2023-04-25T11:58:42.228Z,1986.00
2023-04-25T11:59:42.384Z,1979.00
2023-04-25T12:00:42.280Z,1960.00
2023-04-25T12:01:43.289Z,1961.00
2023-04-25T12:02:42.384Z,1962.00
2023-04-25T12:03:42.423Z,1961.00
2023-04-25T12:04:42.843Z,1944.00
2023-04-25T12:05:42.464Z,1949.00
2023-04-25T12:06:42.297Z,1936.00
2023-04-25T12:07:42.254Z,1912.00
2023-04-25T12:08:42.847Z,1925.00
2023-04-25T12:09:42.390Z,1899.00
2023-04-25T12:10:42.267Z,1892.00
2023-04-25T12:11:42.232Z,1878.00
2023-04-25T12:12:42.312Z,1885.00
2023-04-25T12:13:42.345Z,1870.00
2023-04-25T12:14:42.882Z,1855.00
2023-04-25T12:15:42.538Z,1855.00
2023-04-25T12:16:42.632Z,1863.00
2023-04-25T12:17:42.711Z,1829.00
2023-04-25T12:18:42.748Z,1815.00